Time;durP1;ratioP1;P1;durP2;ratioP2;P2;SDS_P1;SDS_P2;PMS_P1;PMS_P2;Temp;Humidity;BMP_temperature;BMP_pressure;BME280_temperature;BME280_humidity;BME280_pressure;Samples;Min_cycle;Max_cycle;Signal;HPM_P1;HPM_P2
2021/08/22 00:01:42;;;;;;;;;;;;;;;16.21;68.66;98475.55;1699699;83;20481;-87
2021/08/22 00:04:08;;;;;;;;;;;;;;;16.26;68.71;98473.31;1703204;82;20241;-86
2021/08/22 00:06:45;;;;;;;;;;;;;;;16.26;68.76;98475.95;1698443;83;22088;-86
2021/08/22 00:09:11;;;;;;;;;;;;;;;16.29;68.80;98475.69;1656082;85;26082;-87
2021/08/22 00:11:37;;;;;;;;;;;;;;;16.38;68.84;98476.63;1700531;83;24528;-86
2021/08/22 00:14:03;;;;;;;;;;;;;;;16.40;68.87;98477.33;1704904;83;20379;-86
2021/08/22 00:16:30;;;;;;;;;;;;;;;16.35;68.88;98468.52;1705782;83;24778;-86
2021/08/22 00:18:56;;;;;;;;;;;;;;;16.33;68.89;98475.25;1691134;83;22020;-87
2021/08/22 00:21:22;;;;;;;;;;;;;;;16.25;68.90;98472.50;1663021;84;26407;-86
2021/08/22 00:23:48;;;;;;;;;;;;;;;16.21;68.92;98471.09;1697710;83;24527;-87
2021/08/22 00:26:14;;;;;;;;;;;;;;;16.14;68.94;98467.38;1637157;85;20231;-86
2021/08/22 00:28:40;;;;;;;;;;;;;;;16.02;68.96;98468.50;1664335;84;20489;-86
2021/08/22 00:31:06;;;;;;;;;;;;;;;15.93;68.98;98468.00;1671829;84;20270;-89
2021/08/22 00:33:32;;;;;;;;;;;;;;;15.84;69.01;98464.88;1675022;84;26244;-89
2021/08/22 00:35:58;;;;;;;;;;;;;;;15.80;69.11;98464.83;1666000;84;24514;-89
2021/08/22 00:38:24;;;;;;;;;;;;;;;15.74;69.18;98460.09;1636181;87;20244;-87
2021/08/22 00:40:50;;;;;;;;;;;;;;;15.70;69.26;98460.03;1672785;84;20850;-86
2021/08/22 00:43:19;;;;;;;;;;;;;;;15.63;69.34;98461.55;1660958;84;22009;-86
2021/08/22 00:45:46;;;;;;;;;;;;;;;15.64;69.44;98459.27;1672223;84;25904;-86
2021/08/22 00:48:12;;;;;;;;;;;;;;;15.70;69.57;98453.44;1669694;84;25274;-89
2021/08/22 00:50:39;;;;;;;;;;;;;;;15.74;69.66;98454.81;1631556;86;20233;-89
2021/08/22 00:53:05;;;;;;;;;;;;;;;15.72;69.74;98456.75;1688974;84;24599;-89
2021/08/22 00:55:32;;;;;;;;;;;;;;;15.80;69.82;98457.73;1633211;86;22118;-88
2021/08/22 00:57:58;;;;;;;;;;;;;;;15.95;69.89;98458.14;1674612;84;26106;-88
2021/08/22 01:00:24;;;;;;;;;;;;;;;16.05;69.92;98460.28;1643963;85;24384;-89
2021/08/22 01:02:52;;;;;;;;;;;;;;;16.05;69.92;98461.60;1677196;84;20338;-88
2021/08/22 01:05:38;;;;;;;;;;;;;;;15.96;69.92;98461.13;1677373;84;24750;-88
2021/08/22 01:08:12;;;;;;;;;;;;;;;15.95;69.91;98460.78;1677946;84;22559;-88
2021/08/22 01:10:38;;;;;;;;;;;;;;;15.95;69.92;98461.27;1661660;84;25983;-88
2021/08/22 01:13:07;;;;;;;;;;;;;;;16.05;69.91;98465.56;1633117;85;24854;-88
2021/08/22 01:15:38;;;;;;;;;;;;;;;16.04;69.94;98461.25;1662665;85;20377;-88
2021/08/22 01:18:05;;;;;;;;;;;;;;;15.86;69.92;98458.98;1671795;85;24886;-88
2021/08/22 01:20:39;;;;;;;;;;;;;;;15.67;69.88;98461.61;1671887;85;22135;-88
2021/08/22 01:23:06;;;;;;;;;;;;;;;15.50;69.89;98457.81;1669391;85;26009;-89
2021/08/22 01:25:34;;;;;;;;;;;;;;;15.43;69.92;98454.92;1678702;83;24597;-88
2021/08/22 01:28:06;;;;;;;;;;;;;;;15.54;70.02;98457.95;1702345;83;20297;-89
2021/08/22 01:30:34;;;;;;;;;;;;;;;15.66;70.11;98452.02;1661360;85;25445;-89
2021/08/22 01:33:00;;;;;;;;;;;;;;;15.69;70.17;98453.08;1658141;85;21986;-88
2021/08/22 01:35:26;;;;;;;;;;;;;;;15.71;70.21;98456.43;1659379;85;25979;-88
2021/08/22 01:37:53;;;;;;;;;;;;;;;15.75;70.25;98451.21;1664267;84;24580;-88
2021/08/22 01:40:21;;;;;;;;;;;;;;;15.83;70.28;98457.94;1691871;83;20264;-88
2021/08/22 01:42:49;;;;;;;;;;;;;;;15.87;70.29;98450.91;1660498;84;25516;-88
2021/08/22 01:45:16;;;;;;;;;;;;;;;15.85;70.30;98445.44;1690105;84;22028;-89
2021/08/22 01:47:47;;;;;;;;;;;;;;;15.66;70.29;98447.58;1685855;84;26203;-88
2021/08/22 01:50:13;;;;;;;;;;;;;;;15.49;70.30;98447.75;1697025;84;24497;-88
2021/08/22 01:52:39;;;;;;;;;;;;;;;15.40;70.32;98447.75;1690971;84;20223;-88
2021/08/22 01:55:10;;;;;;;;;;;;;;;15.48;70.38;98447.42;1693842;84;24890;-89
2021/08/22 01:57:38;;;;;;;;;;;;;;;15.53;70.45;98446.20;1693854;84;22675;-89
2021/08/22 02:00:05;;;;;;;;;;;;;;;15.47;70.52;98447.07;1690050;83;25980;-89
2021/08/22 02:02:34;;;;;;;;;;;;;;;15.39;70.54;98450.03;1669144;83;24612;-89
2021/08/22 02:05:00;;;;;;;;;;;;;;;15.35;70.60;98446.84;1661336;84;20454;-89
2021/08/22 02:07:32;;;;;;;;;;;;;;;15.38;70.64;98449.19;1718216;82;24480;-86
2021/08/22 02:10:09;;;;;;;;;;;;;;;15.45;70.70;98452.13;1703377;83;22069;-86
2021/08/22 02:12:44;;;;;;;;;;;;;;;15.49;70.77;98446.43;1657007;85;26063;-86
2021/08/22 02:15:12;;;;;;;;;;;;;;;15.57;70.81;98447.11;1666488;84;25376;-86
2021/08/22 02:17:39;;;;;;;;;;;;;;;15.60;70.84;98452.61;1698274;83;20220;-86
2021/08/22 02:20:06;;;;;;;;;;;;;;;15.58;70.88;98450.09;1697795;82;25749;-85
2021/08/22 02:22:34;;;;;;;;;;;;;;;15.56;70.91;98451.19;1706367;83;22113;-85
2021/08/22 02:25:01;;;;;;;;;;;;;;;15.47;70.93;98446.23;1699833;83;26650;-85
2021/08/22 02:27:28;;;;;;;;;;;;;;;15.33;70.92;98446.13;1680998;84;24599;-87
2021/08/22 02:29:55;;;;;;;;;;;;;;;15.26;70.95;98441.56;1680981;84;20327;-85
2021/08/22 02:32:22;;;;;;;;;;;;;;;15.20;71.00;98438.14;1672210;85;25521;-86
2021/08/22 02:34:48;;;;;;;;;;;;;;;15.10;71.07;98440.77;1683283;84;21945;-85
2021/08/22 02:37:14;;;;;;;;;;;;;;;14.98;71.12;98433.94;1670990;85;26111;-85
2021/08/22 02:39:40;;;;;;;;;;;;;;;14.90;71.19;98437.70;1644205;85;24523;-85
2021/08/22 02:42:06;;;;;;;;;;;;;;;14.84;71.27;98434.29;1689315;83;20249;-85
2021/08/22 02:44:32;;;;;;;;;;;;;;;14.81;71.37;98440.67;1673056;85;24751;-85
2021/08/22 02:46:58;;;;;;;;;;;;;;;14.75;71.44;98430.66;1642952;87;20836;-86
2021/08/22 02:49:25;;;;;;;;;;;;;;;14.72;71.54;98433.58;1643104;87;26795;-86
2021/08/22 02:51:51;;;;;;;;;;;;;;;14.66;71.62;98423.57;1645923;86;24396;-86
2021/08/22 02:54:17;;;;;;;;;;;;;;;14.58;71.68;98425.53;1694028;83;20345;-85
2021/08/22 02:56:43;;;;;;;;;;;;;;;14.54;71.75;98423.30;1671187;85;24789;-86
2021/08/22 02:59:09;;;;;;;;;;;;;;;14.63;71.86;98418.06;1641129;87;20916;-86
2021/08/22 03:01:36;;;;;;;;;;;;;;;14.84;71.98;98421.11;1679935;84;26151;-85
2021/08/22 03:04:08;;;;;;;;;;;;;;;14.97;72.04;98412.49;1672473;85;20778;-86
2021/08/22 03:06:34;;;;;;;;;;;;;;;15.07;72.12;98413.34;1679757;84;20390;-86
2021/08/22 03:09:02;;;;;;;;;;;;;;;15.10;72.17;98414.41;1682792;85;25446;-86
2021/08/22 03:11:28;;;;;;;;;;;;;;;15.12;72.20;98419.04;1668529;85;22129;-86
2021/08/22 03:13:54;;;;;;;;;;;;;;;15.02;72.22;98415.55;1620330;87;25947;-86
2021/08/22 03:16:20;;;;;;;;;;;;;;;15.01;72.21;98409.45;1690478;83;24397;-85
2021/08/22 03:18:48;;;;;;;;;;;;;;;15.14;72.26;98412.33;1688345;84;20221;-87
2021/08/22 03:21:18;;;;;;;;;;;;;;;15.15;72.33;98414.83;1657857;84;24813;-87
2021/08/22 03:23:44;;;;;;;;;;;;;;;15.17;72.35;98409.40;1692136;84;21979;-87
2021/08/22 03:26:10;;;;;;;;;;;;;;;15.15;72.37;98408.24;1682087;81;21745;-87
2021/08/22 03:28:36;;;;;;;;;;;;;;;15.06;72.41;98406.41;1703274;83;20238;-88
2021/08/22 03:31:08;;;;;;;;;;;;;;;15.05;72.45;98406.88;1728636;81;20217;-87
2021/08/22 03:33:34;;;;;;;;;;;;;;;15.04;72.47;98401.29;1723181;81;24812;-86
2021/08/22 03:36:00;;;;;;;;;;;;;;;15.01;72.51;98402.02;1724295;81;22880;-87
2021/08/22 03:38:26;;;;;;;;;;;;;;;14.93;72.53;98408.47;1728838;81;25991;-87
2021/08/22 03:40:52;;;;;;;;;;;;;;;14.82;72.58;98401.51;1724424;81;20279;-87
2021/08/22 03:43:21;;;;;;;;;;;;;;;14.74;72.62;98405.77;1721871;81;20187;-86
2021/08/22 03:45:47;;;;;;;;;;;;;;;14.64;72.64;98401.30;1730249;81;24934;-87
2021/08/22 03:48:13;;;;;;;;;;;;;;;14.60;72.68;98411.77;1747201;81;20252;-87
2021/08/22 03:50:39;;;;;;;;;;;;;;;14.71;72.77;98408.20;1734648;81;20900;-87
2021/08/22 03:53:05;;;;;;;;;;;;;;;14.80;72.88;98411.81;1689996;81;24401;-87
2021/08/22 03:55:31;;;;;;;;;;;;;;;14.89;72.95;98411.03;1730185;81;20650;-87
2021/08/22 03:58:03;;;;;;;;;;;;;;;14.94;73.01;98408.83;1690632;83;24793;-87
2021/08/22 04:00:30;;;;;;;;;;;;;;;14.95;73.02;98411.78;1702059;83;22109;-87
2021/08/22 04:02:56;;;;;;;;;;;;;;;14.91;73.06;98413.03;1735634;81;26033;-86
2021/08/22 04:05:22;;;;;;;;;;;;;;;14.81;73.07;98413.01;1732993;81;24671;-86
2021/08/22 04:07:49;;;;;;;;;;;;;;;14.70;73.10;98405.69;1734022;80;20272;-86
2021/08/22 04:10:16;;;;;;;;;;;;;;;14.62;73.12;98412.45;1723813;81;24476;-87
2021/08/22 04:12:43;;;;;;;;;;;;;;;14.56;73.18;98415.61;1720152;81;37979;-86
2021/08/22 04:15:15;;;;;;;;;;;;;;;14.51;73.24;98407.27;1729225;81;25988;-86
2021/08/22 04:17:41;;;;;;;;;;;;;;;14.50;73.30;98410.06;1744078;81;24497;-86
2021/08/22 04:20:10;;;;;;;;;;;;;;;14.49;73.42;98409.70;1695987;83;20362;-86
2021/08/22 04:22:37;;;;;;;;;;;;;;;14.53;73.53;98409.78;1734040;81;24735;-86
2021/08/22 04:25:09;;;;;;;;;;;;;;;14.57;73.66;98408.55;1726600;81;21960;-86
2021/08/22 04:27:34;;;;;;;;;;;;;;;14.66;73.80;98406.45;1729393;81;27434;-86
2021/08/22 04:30:00;;;;;;;;;;;;;;;14.78;73.92;98404.55;1724246;81;24547;-86
2021/08/22 04:32:26;;;;;;;;;;;;;;;14.85;74.03;98399.07;1690301;83;20247;-86
2021/08/22 04:34:56;;;;;;;;;;;;;;;14.90;74.15;98402.13;1658070;85;24783;-88
2021/08/22 04:37:22;;;;;;;;;;;;;;;14.92;74.26;98401.53;1663345;84;21966;-89
2021/08/22 04:39:48;;;;;;;;;;;;;;;14.95;74.34;98401.24;1701866;83;25984;-88
2021/08/22 04:42:14;;;;;;;;;;;;;;;15.02;74.44;98397.11;1699595;83;24431;-89
2021/08/22 04:44:40;;;;;;;;;;;;;;;15.17;74.54;98404.97;1702675;83;20571;-88
2021/08/22 04:47:06;;;;;;;;;;;;;;;15.40;74.66;98401.11;1656879;85;24771;-89
2021/08/22 04:49:32;;;;;;;;;;;;;;;15.61;74.79;98399.68;1658140;85;22037;-88
2021/08/22 04:51:58;;;;;;;;;;;;;;;15.77;74.83;98398.63;1660603;85;25994;-88
2021/08/22 04:54:31;;;;;;;;;;;;;;;15.92;74.86;98400.85;1659801;85;24412;-85
2021/08/22 04:56:57;;;;;;;;;;;;;;;16.02;74.87;98402.98;1663235;85;20305;-85
2021/08/22 04:59:24;;;;;;;;;;;;;;;15.97;74.87;98395.50;1656922;85;24739;-86
2021/08/22 05:01:57;;;;;;;;;;;;;;;15.94;74.88;98395.77;1658944;85;21933;-85
2021/08/22 05:04:23;;;;;;;;;;;;;;;15.94;74.90;98393.61;1696983;83;26214;-86
2021/08/22 05:06:49;;;;;;;;;;;;;;;16.03;74.95;98398.89;1700658;83;20274;-86
2021/08/22 05:09:15;;;;;;;;;;;;;;;16.22;75.00;98398.83;1688559;83;20232;-86
2021/08/22 05:11:41;;;;;;;;;;;;;;;16.36;75.03;98396.23;1663962;85;20237;-86
2021/08/22 05:14:10;;;;;;;;;;;;;;;16.46;75.03;98397.52;1653182;84;20305;-87
2021/08/22 05:16:35;;;;;;;;;;;;;;;16.47;75.03;98395.22;1689908;83;26250;-87
2021/08/22 05:19:01;;;;;;;;;;;;;;;16.45;74.99;98394.03;1702151;83;24444;-87
2021/08/22 05:21:27;;;;;;;;;;;;;;;16.47;74.99;98399.18;1704296;83;20453;-87
2021/08/22 05:23:54;;;;;;;;;;;;;;;16.58;75.00;98395.03;1693560;83;24759;-86
2021/08/22 05:26:20;;;;;;;;;;;;;;;16.65;75.03;98395.64;1702118;83;22028;-86
2021/08/22 05:28:48;;;;;;;;;;;;;;;16.75;75.07;98394.78;1669432;83;23916;-87
2021/08/22 05:31:14;;;;;;;;;;;;;;;16.81;75.11;98396.81;1703708;83;25271;-87
2021/08/22 05:33:40;;;;;;;;;;;;;;;16.85;75.15;98403.01;1709626;83;20493;-87
2021/08/22 05:36:16;;;;;;;;;;;;;;;16.92;75.16;98404.06;1702245;83;24711;-87
2021/08/22 05:38:42;;;;;;;;;;;;;;;17.01;75.19;98403.19;1701975;83;22112;-86
2021/08/22 05:41:08;;;;;;;;;;;;;;;17.06;75.22;98408.03;1707958;83;26140;-86
2021/08/22 05:43:34;;;;;;;;;;;;;;;17.01;75.20;98404.52;1691195;83;24433;-86
2021/08/22 05:46:01;;;;;;;;;;;;;;;17.03;75.21;98405.67;1697772;83;20260;-86
2021/08/22 05:48:27;;;;;;;;;;;;;;;16.95;75.16;98402.45;1694435;83;24717;-86
2021/08/22 05:50:53;;;;;;;;;;;;;;;16.90;75.12;98402.07;1655984;85;21941;-86
2021/08/22 05:53:25;;;;;;;;;;;;;;;16.89;75.11;98403.05;1661539;85;21112;-86
2021/08/22 05:55:51;;;;;;;;;;;;;;;16.89;75.12;98402.21;1664200;85;24467;-87
2021/08/22 05:58:17;;;;;;;;;;;;;;;16.91;75.18;98398.42;1699947;83;20469;-86
2021/08/22 06:00:43;;;;;;;;;;;;;;;16.97;75.24;98400.48;1691341;83;24752;-86
2021/08/22 06:03:10;;;;;;;;;;;;;;;17.05;75.30;98395.78;1671112;84;20280;-86
2021/08/22 06:05:36;;;;;;;;;;;;;;;17.13;75.38;98393.22;1690495;83;26851;-86
2021/08/22 06:08:07;;;;;;;;;;;;;;;17.21;75.48;98397.77;1732288;81;24481;-86
2021/08/22 06:10:33;;;;;;;;;;;;;;;17.26;75.53;98392.37;1707644;82;20287;-85
2021/08/22 06:12:59;;;;;;;;;;;;;;;17.31;75.59;98390.59;1698789;83;24772;-86
2021/08/22 06:15:25;;;;;;;;;;;;;;;17.34;75.67;98393.79;1704118;83;22027;-86
2021/08/22 06:17:51;;;;;;;;;;;;;;;17.38;75.76;98397.79;1709617;83;26030;-89
2021/08/22 06:20:18;;;;;;;;;;;;;;;17.44;75.86;98392.39;1704564;83;24484;-89
2021/08/22 06:22:44;;;;;;;;;;;;;;;17.51;75.95;98389.48;1711450;83;20220;-89
2021/08/22 06:25:12;;;;;;;;;;;;;;;17.59;76.02;98388.22;1673433;83;20618;-88
2021/08/22 06:27:38;;;;;;;;;;;;;;;17.65;76.07;98388.13;1690130;83;22846;-88
2021/08/22 06:30:14;;;;;;;;;;;;;;;17.69;76.11;98396.10;1638866;86;21015;-88
2021/08/22 06:32:40;;;;;;;;;;;;;;;17.77;76.15;98400.16;1644195;86;24473;-89
2021/08/22 06:35:06;;;;;;;;;;;;;;;17.88;76.19;98396.77;1645075;86;20226;-89
2021/08/22 06:37:32;;;;;;;;;;;;;;;18.01;76.22;98400.32;1645565;86;24794;-89
2021/08/22 06:39:59;;;;;;;;;;;;;;;18.13;76.25;98392.47;1646394;86;22032;-89
2021/08/22 06:42:25;;;;;;;;;;;;;;;18.18;76.24;98393.32;1663749;85;26048;-89
2021/08/22 06:44:52;;;;;;;;;;;;;;;18.21;76.23;98394.35;1628906;86;24212;-89
2021/08/22 06:47:18;;;;;;;;;;;;;;;18.24;76.18;98396.19;1664766;85;20643;-89
2021/08/22 06:49:50;;;;;;;;;;;;;;;18.29;76.17;98393.06;1683397;84;20260;-87
2021/08/22 06:52:17;;;;;;;;;;;;;;;18.34;76.13;98390.77;1672343;84;22137;-86
2021/08/22 06:54:43;;;;;;;;;;;;;;;18.43;76.12;98393.82;1668837;84;26052;-87
2021/08/22 06:57:11;;;;;;;;;;;;;;;18.57;76.15;98397.23;1674441;84;24399;-86
2021/08/22 06:59:42;;;;;;;;;;;;;;;18.67;76.16;98401.08;1679964;84;20303;-86
2021/08/22 07:02:06;;;;;;;;;;;;;;;18.76;76.17;98406.25;1682767;84;24934;-85
2021/08/22 07:04:32;;;;;;;;;;;;;;;18.88;76.17;98408.62;1676666;84;22137;-86
2021/08/22 07:06:58;;;;;;;;;;;;;;;18.96;76.16;98402.86;1683008;84;26866;-86
2021/08/22 07:09:26;;;;;;;;;;;;;;;19.07;76.16;98407.87;1642014;84;20504;-86
2021/08/22 07:11:54;;;;;;;;;;;;;;;19.26;76.16;98410.73;1679807;84;20836;-85
2021/08/22 07:14:22;;;;;;;;;;;;;;;19.38;76.09;98410.77;1677983;84;24835;-86
2021/08/22 07:16:54;;;;;;;;;;;;;;;19.61;76.10;98411.00;1680219;84;22316;-85
2021/08/22 07:19:20;;;;;;;;;;;;;;;19.77;76.08;98412.83;1673648;84;26049;-85
2021/08/22 07:21:46;;;;;;;;;;;;;;;19.84;76.00;98411.19;1674873;84;20819;-86
2021/08/22 07:24:17;;;;;;;;;;;;;;;19.94;75.92;98412.67;1668593;84;20262;-85
2021/08/22 07:26:41;;;;;;;;;;;;;;;19.99;75.85;98411.67;1675705;84;23817;-85
2021/08/22 07:29:08;;;;;;;;;;;;;;;20.07;75.80;98408.20;1683541;83;22688;-85
2021/08/22 07:31:34;;;;;;;;;;;;;;;20.20;75.85;98409.82;1666089;85;26071;-85
2021/08/22 07:34:00;;;;;;;;;;;;;;;20.29;75.81;98407.47;1667708;85;24435;-86
2021/08/22 07:36:26;;;;;;;;;;;;;;;20.37;75.78;98402.68;1656040;85;20786;-85
2021/08/22 07:38:52;;;;;;;;;;;;;;;20.41;75.74;98404.83;1667066;85;24763;-85
2021/08/22 07:41:18;;;;;;;;;;;;;;;20.50;75.70;98412.80;1667795;85;20317;-85
2021/08/22 07:43:44;;;;;;;;;;;;;;;20.58;75.62;98403.45;1604940;87;21150;-86
2021/08/22 07:46:10;;;;;;;;;;;;;;;20.61;75.54;98400.47;1675838;84;20919;-86
2021/08/22 07:48:36;;;;;;;;;;;;;;;20.62;75.40;98392.83;1674279;84;20343;-86
2021/08/22 07:51:02;;;;;;;;;;;;;;;20.65;75.28;98393.30;1665847;85;24748;-87
2021/08/22 07:53:28;;;;;;;;;;;;;;;20.69;75.21;98394.61;1668508;85;21978;-85
2021/08/22 07:55:54;;;;;;;;;;;;;;;20.73;75.10;98387.94;1673930;84;26240;-85
2021/08/22 07:58:20;;;;;;;;;;;;;;;20.79;75.06;98394.39;1674601;84;24487;-85
2021/08/22 08:00:47;;;;;;;;;;;;;;;20.84;74.96;98398.70;1661903;85;20251;-86
2021/08/22 08:03:13;;;;;;;;;;;;;;;20.90;74.88;98396.67;1671405;83;24888;-86
2021/08/22 08:05:42;;;;;;;;;;;;;;;20.97;74.81;98394.99;1677312;84;20241;-86
2021/08/22 08:08:09;;;;;;;;;;;;;;;20.99;74.70;98392.16;1671986;85;26032;-86
2021/08/22 08:10:41;;;;;;;;;;;;;;;20.98;74.57;98390.50;1674159;85;24494;-86
2021/08/22 08:13:07;;;;;;;;;;;;;;;21.01;74.44;98398.95;1673083;84;20344;-86
2021/08/22 08:15:33;;;;;;;;;;;;;;;21.04;74.29;98394.63;1677896;84;24969;-84
2021/08/22 08:17:59;;;;;;;;;;;;;;;21.08;74.20;98387.95;1671693;85;20222;-86
2021/08/22 08:20:24;;;;;;;;;;;;;;;21.16;74.11;98385.80;1672605;85;21128;-85
2021/08/22 08:22:51;;;;;;;;;;;;;;;21.25;74.03;98392.22;1678100;85;24404;-86
2021/08/22 08:25:16;;;;;;;;;;;;;;;21.31;73.93;98393.84;1664646;85;20252;-86
2021/08/22 08:27:43;;;;;;;;;;;;;;;21.37;73.80;98393.15;1675785;82;20231;-86
2021/08/22 08:30:10;;;;;;;;;;;;;;;21.45;73.70;98389.91;1660391;85;22022;-86
2021/08/22 08:32:42;;;;;;;;;;;;;;;21.57;73.64;98387.67;1679002;83;25970;-86
2021/08/22 08:35:14;;;;;;;;;;;;;;;21.64;73.54;98385.97;1692812;83;24513;-86
2021/08/22 08:37:40;;;;;;;;;;;;;;;21.72;73.45;98381.89;1655523;85;20708;-87
2021/08/22 08:40:13;;;;;;;;;;;;;;;21.85;73.40;98384.80;1665248;85;20780;-87
2021/08/22 08:45:41;;;;;;;;;;;;;;;22.06;73.10;98383.63;1794184;78;20191;-86
2021/08/22 08:48:15;;;;;;;;;;;;;;;22.27;72.97;98384.75;1793564;79;24583;-86
2021/08/22 08:50:49;;;;;;;;;;;;;;;22.40;72.65;98380.46;1790369;79;20363;-85
2021/08/22 08:53:19;;;;;;;;;;;;;;;22.56;72.34;98384.78;1790466;79;24895;-85
2021/08/22 08:55:56;;;;;;;;;;;;;;;22.60;71.96;98379.90;1794128;79;22010;-85
2021/08/22 08:58:22;;;;;;;;;;;;;;;22.66;71.59;98381.33;1791012;79;26020;-85
2021/08/22 09:00:51;;;;;;;;;;;;;;;22.77;71.16;98378.22;1795460;78;20823;-85
2021/08/22 09:03:17;;;;;;;;;;;;;;;22.90;70.71;98373.06;1798243;78;20342;-85
2021/08/22 09:06:02;;;;;;;;;;;;;;;23.00;70.35;98374.61;1795563;78;25448;-85
2021/08/22 09:08:41;;;;;;;;;;;;;;;23.10;69.97;98378.63;1790060;78;22014;-85
2021/08/22 09:11:17;;;;;;;;;;;;;;;23.23;69.32;98383.30;1723222;81;26767;-85
2021/08/22 09:14:03;;;;;;;;;;;;;;;23.26;68.82;98377.58;1789373;79;24490;-85
2021/08/22 09:16:34;;;;;;;;;;;;;;;23.34;68.47;98375.63;1790373;78;20262;-85
2021/08/22 09:19:19;;;;;;;;;;;;;;;23.43;68.07;98374.98;1790201;78;24741;-85
2021/08/22 09:21:59;;;;;;;;;;;;;;;23.47;67.51;98375.45;1796623;78;22011;-86
2021/08/22 09:24:32;;;;;;;;;;;;;;;23.48;67.00;98381.95;1791497;78;25943;-86
2021/08/22 09:27:17;;;;;;;;;;;;;;;23.55;66.54;98381.52;1795262;78;25068;-86
2021/08/22 09:30:01;;;;;;;;;;;;;;;23.65;66.13;98378.02;1792908;78;20257;-86
2021/08/22 09:32:46;;;;;;;;;;;;;;;23.80;65.72;98376.59;1789055;79;25444;-87
2021/08/22 09:35:14;;;;;;;;;;;;;;;23.93;65.50;98379.91;1784515;79;22045;-86
2021/08/22 09:37:59;;;;;;;;;;;;;;;24.00;64.98;98370.90;1798206;78;26860;-87
2021/08/22 09:40:44;;;;;;;;;;;;;;;24.00;64.39;98372.23;1797960;78;24517;-87
2021/08/22 09:43:32;;;;;;;;;;;;;;;23.99;63.80;98377.80;1800325;78;20204;-87
2021/08/22 09:46:09;;;;;;;;;;;;;;;23.99;63.28;98379.97;1789766;80;24869;-85
2021/08/22 09:48:40;;;;;;;;;;;;;;;24.05;62.83;98373.84;1789805;79;22100;-85
2021/08/22 09:51:11;;;;;;;;;;;;;;;24.17;62.55;98371.44;1791052;80;26861;-85
2021/08/22 09:53:42;;;;;;;;;;;;;;;24.24;62.11;98369.67;1782807;80;24430;-85
2021/08/22 09:56:15;;;;;;;;;;;;;;;24.25;61.63;98371.84;1787986;80;20251;-85
2021/08/22 09:58:50;;;;;;;;;;;;;;;24.25;61.20;98366.50;1793538;79;24854;-86
2021/08/22 10:01:21;;;;;;;;;;;;;;;24.28;60.85;98368.26;1790904;80;21938;-86
2021/08/22 10:04:09;;;;;;;;;;;;;;;24.34;60.54;98362.13;1787730;80;26014;-86
2021/08/22 10:06:40;;;;;;;;;;;;;;;24.47;60.29;98364.07;1792702;79;24444;-86
2021/08/22 10:09:11;;;;;;;;;;;;;;;24.56;59.95;98360.20;1791608;78;20235;-86
2021/08/22 10:11:43;;;;;;;;;;;;;;;24.70;59.71;98361.11;1778901;78;24836;-86
2021/08/22 10:14:10;;;;;;;;;;;;;;;24.77;59.42;98357.93;1774056;78;22769;-87
2021/08/22 10:16:37;;;;;;;;;;;;;;;24.88;59.23;98361.41;1738210;80;26272;-86
2021/08/22 10:19:04;;;;;;;;;;;;;;;24.93;58.93;98354.43;1787681;78;24490;-85
2021/08/22 10:21:38;;;;;;;;;;;;;;;24.97;58.63;98350.86;1804110;77;20249;-86
2021/08/22 10:24:06;;;;;;;;;;;;;;;24.95;58.31;98348.38;1785442;78;25516;-86
2021/08/22 10:26:47;;;;;;;;;;;;;;;25.06;58.12;98346.97;1738081;80;21946;-86
2021/08/22 10:29:17;;;;;;;;;;;;;;;25.18;57.94;98345.88;1784573;78;26311;-86
2021/08/22 10:32:02;;;;;;;;;;;;;;;25.26;57.72;98351.03;1784913;79;24434;-86
2021/08/22 10:34:27;;;;;;;;;;;;;;;25.33;57.45;98350.54;1786833;78;20291;-86
2021/08/22 10:36:53;;;;;;;;;;;;;;;25.39;57.16;98353.23;1789446;79;25891;-86
2021/08/22 10:39:26;;;;;;;;;;;;;;;25.49;56.92;98354.69;1790646;80;22137;-86
2021/08/22 10:41:57;;;;;;;;;;;;;;;25.56;56.56;98356.91;1783415;78;26052;-86
2021/08/22 10:44:38;;;;;;;;;;;;;;;25.61;56.14;98363.81;1751781;80;24454;-86
2021/08/22 10:47:08;;;;;;;;;;;;;;;25.64;55.84;98357.52;1805303;78;20313;-86
2021/08/22 10:49:54;;;;;;;;;;;;;;;25.62;55.63;98356.09;1798728;78;24882;-86
2021/08/22 10:52:31;;;;;;;;;;;;;;;25.62;55.53;98356.92;1765214;80;22000;-86
2021/08/22 10:55:08;;;;;;;;;;;;;;;25.61;55.52;98351.75;1809439;78;25832;-85
2021/08/22 10:57:45;;;;;;;;;;;;;;;25.73;55.50;98352.80;1794174;79;24563;-86
2021/08/22 11:00:30;;;;;;;;;;;;;;;25.80;55.29;98352.30;1808303;79;20755;-86
2021/08/22 11:02:57;;;;;;;;;;;;;;;25.83;55.03;98350.02;1809769;79;24894;-86
2021/08/22 11:05:28;;;;;;;;;;;;;;;25.90;54.86;98362.09;1810143;79;22133;-86
2021/08/22 11:07:55;;;;;;;;;;;;;;;25.95;54.68;98355.59;1806997;79;26056;-86
2021/08/22 11:10:28;;;;;;;;;;;;;;;25.99;54.40;98354.14;1810120;79;24455;-86
2021/08/22 11:12:58;;;;;;;;;;;;;;;26.03;54.21;98348.66;1809200;79;20224;-85
2021/08/22 11:15:27;;;;;;;;;;;;;;;26.01;53.93;98341.36;1809076;79;24772;-86
2021/08/22 11:18:04;;;;;;;;;;;;;;;26.01;53.93;98342.70;1813706;77;22740;-86
2021/08/22 11:20:32;;;;;;;;;;;;;;;25.96;53.76;98343.02;1805378;77;26624;-87
2021/08/22 11:23:03;;;;;;;;;;;;;;;25.97;53.53;98342.78;1811302;79;24399;-87
2021/08/22 11:25:29;;;;;;;;;;;;;;;26.01;53.37;98335.99;1805353;79;20221;-87
2021/08/22 11:28:04;;;;;;;;;;;;;;;26.07;53.26;98334.34;1807545;77;24909;-87
2021/08/22 11:30:30;;;;;;;;;;;;;;;26.09;53.10;98335.77;1810936;79;21979;-87
2021/08/22 11:32:56;;;;;;;;;;;;;;;26.17;52.99;98336.08;1808478;79;25956;-87
2021/08/22 11:35:24;;;;;;;;;;;;;;;26.26;52.91;98325.45;1806072;77;24412;-87
2021/08/22 11:37:50;;;;;;;;;;;;;;;26.35;52.76;98324.73;1809946;79;20286;-87
2021/08/22 11:40:18;;;;;;;;;;;;;;;26.41;52.58;98335.94;1810310;79;24762;-86
2021/08/22 11:42:48;;;;;;;;;;;;;;;26.44;52.48;98327.48;1809485;78;21927;-88
2021/08/22 11:45:18;;;;;;;;;;;;;;;26.43;52.27;98327.17;1800456;79;22753;-88
2021/08/22 11:47:49;;;;;;;;;;;;;;;26.45;52.03;98329.14;1797935;79;24414;-88
2021/08/22 11:50:18;;;;;;;;;;;;;;;26.46;51.86;98330.25;1795087;80;20254;-88
2021/08/22 11:52:54;;;;;;;;;;;;;;;26.48;51.68;98325.50;1800118;78;25474;-88
2021/08/22 11:55:21;;;;;;;;;;;;;;;26.52;51.57;98324.04;1797805;79;21956;-87
2021/08/22 11:57:48;;;;;;;;;;;;;;;26.60;51.68;98326.51;1799129;78;26758;-86
2021/08/22 12:00:16;;;;;;;;;;;;;;;26.65;51.53;98321.32;1797783;78;24602;-87
2021/08/22 12:03:02;;;;;;;;;;;;;;;26.70;51.42;98319.86;1768611;79;20323;-86
2021/08/22 12:05:30;;;;;;;;;;;;;;;26.72;51.26;98311.91;1734262;81;24863;-87
2021/08/22 12:08:04;;;;;;;;;;;;;;;26.82;51.24;98310.93;1764835;80;21960;-86
2021/08/22 12:10:31;;;;;;;;;;;;;;;26.85;51.06;98306.45;1766284;80;26607;-87
2021/08/22 12:12:58;;;;;;;;;;;;;;;26.95;51.10;98306.84;1767806;80;25157;-87
2021/08/22 12:15:28;;;;;;;;;;;;;;;27.06;51.18;98309.37;1729091;82;20350;-87
2021/08/22 12:18:14;;;;;;;;;;;;;;;27.06;50.88;98313.41;1798850;78;25495;-87
2021/08/22 12:20:40;;;;;;;;;;;;;;;26.97;50.53;98307.47;1799584;77;21975;-87
2021/08/22 12:23:10;;;;;;;;;;;;;;;26.99;50.41;98307.27;1798664;77;26094;-87
2021/08/22 12:25:37;;;;;;;;;;;;;;;27.03;50.35;98305.79;1804896;77;24429;-87
2021/08/22 12:28:20;;;;;;;;;;;;;;;27.03;50.20;98312.50;1799337;79;20261;-87
2021/08/22 12:30:47;;;;;;;;;;;;;;;27.00;50.00;98307.03;1801082;78;24853;-87
2021/08/22 12:33:30;;;;;;;;;;;;;;;27.10;50.06;98302.55;1798499;79;22057;-86
2021/08/22 12:36:04;;;;;;;;;;;;;;;27.11;49.70;98307.41;1796583;79;26179;-87
2021/08/22 12:38:39;;;;;;;;;;;;;;;27.08;49.57;98299.25;1764235;79;25285;-87
2021/08/22 12:41:23;;;;;;;;;;;;;;;27.05;49.52;98301.03;1786959;77;20218;-87
2021/08/22 12:43:50;;;;;;;;;;;;;;;27.01;49.43;98295.25;1796503;78;24817;-87
2021/08/22 12:46:16;;;;;;;;;;;;;;;26.96;49.19;98296.41;1788493;79;22115;-87
2021/08/22 12:48:43;;;;;;;;;;;;;;;26.94;49.16;98296.34;1788117;79;25955;-87
2021/08/22 12:51:09;;;;;;;;;;;;;;;26.89;49.15;98291.63;1789506;79;24567;-87
2021/08/22 12:53:36;;;;;;;;;;;;;;;26.86;49.11;98291.17;1788310;79;20255;-87
2021/08/22 12:56:02;;;;;;;;;;;;;;;26.83;49.07;98283.56;1788439;79;20804;-87
2021/08/22 12:58:28;;;;;;;;;;;;;;;26.76;48.86;98279.55;1792849;78;21935;-87
2021/08/22 13:00:57;;;;;;;;;;;;;;;26.72;48.71;98277.52;1790039;79;20972;-87